createdAt,value
2022-10-22T00:00:35.011Z,0.00
2022-10-22T00:01:34.982Z,0.00
2022-10-22T00:02:35.011Z,0.00
2022-10-22T00:03:34.953Z,0.00
2022-10-22T00:04:35.636Z,0.00
2022-10-22T00:05:34.922Z,0.00
2022-10-22T00:06:34.932Z,0.00
2022-10-22T00:07:34.890Z,0.00
2022-10-22T00:08:34.910Z,0.00
2022-10-22T00:09:34.873Z,0.00
2022-10-22T00:10:34.841Z,0.00
2022-10-22T00:11:34.846Z,0.00
2022-10-22T00:12:34.913Z,0.00
2022-10-22T00:13:34.852Z,0.00
2022-10-22T00:14:34.800Z,0.00
2022-10-22T00:15:34.797Z,0.00
2022-10-22T00:16:34.763Z,0.00
2022-10-22T00:17:34.746Z,0.00
2022-10-22T00:18:34.868Z,0.00
2022-10-22T00:19:34.714Z,0.00
2022-10-22T00:20:34.728Z,0.00
2022-10-22T00:21:34.707Z,0.00
2022-10-22T00:22:34.676Z,0.00
2022-10-22T00:23:34.679Z,0.00
2022-10-22T00:24:34.672Z,0.00
2022-10-22T00:25:34.643Z,0.00
2022-10-22T00:26:34.630Z,0.00
2022-10-22T00:27:34.606Z,0.00
2022-10-22T00:28:34.611Z,0.00
2022-10-22T00:29:34.604Z,0.00
2022-10-22T00:30:34.587Z,0.00
2022-10-22T00:31:34.557Z,0.00
2022-10-22T00:32:34.553Z,0.00
2022-10-22T00:33:34.542Z,0.00
2022-10-22T00:34:34.499Z,0.00
2022-10-22T00:35:34.522Z,0.00
2022-10-22T00:36:34.599Z,0.00
2022-10-22T00:37:34.473Z,0.00
2022-10-22T00:38:34.475Z,0.00
2022-10-22T00:39:34.441Z,0.00
2022-10-22T00:40:34.450Z,0.00
2022-10-22T00:41:34.432Z,0.00
2022-10-22T00:42:34.423Z,0.00
2022-10-22T00:43:34.404Z,0.00
2022-10-22T00:44:34.369Z,0.00
2022-10-22T00:45:34.362Z,0.00
2022-10-22T00:46:34.358Z,0.00
2022-10-22T00:47:34.347Z,0.00
2022-10-22T00:48:34.452Z,0.00
2022-10-22T00:49:34.317Z,0.00
2022-10-22T00:50:34.294Z,0.00
2022-10-22T00:51:34.296Z,0.00
2022-10-22T00:52:34.264Z,0.00
2022-10-22T00:53:34.246Z,0.00
2022-10-22T00:54:34.359Z,0.00
2022-10-22T00:55:34.242Z,0.00
2022-10-22T00:56:34.230Z,0.00
2022-10-22T00:57:34.210Z,0.00
2022-10-22T00:58:34.188Z,0.00
2022-10-22T00:59:34.181Z,0.00
2022-10-22T01:00:34.199Z,0.00
2022-10-22T01:01:34.137Z,0.00
2022-10-22T01:02:34.134Z,0.00
2022-10-22T01:03:34.132Z,0.00
2022-10-22T01:04:34.099Z,0.00
2022-10-22T01:05:34.087Z,0.00
2022-10-22T01:06:34.205Z,0.00
2022-10-22T01:07:34.059Z,0.00
2022-10-22T01:08:34.130Z,0.00
2022-10-22T01:09:34.043Z,0.00
2022-10-22T01:10:34.019Z,0.00
2022-10-22T01:11:34.025Z,0.00
2022-10-22T01:12:34.119Z,0.00
2022-10-22T01:13:33.982Z,0.00
2022-10-22T01:14:33.974Z,0.00
2022-10-22T01:15:33.951Z,0.00
2022-10-22T01:16:33.945Z,0.00
2022-10-22T01:17:33.945Z,0.00
2022-10-22T01:18:33.943Z,0.00
2022-10-22T01:19:33.900Z,0.00
2022-10-22T01:20:38.021Z,0.00
2022-10-22T01:21:33.915Z,0.00
2022-10-22T01:22:33.874Z,0.00
2022-10-22T01:23:34.208Z,0.00
2022-10-22T01:24:33.853Z,0.00
2022-10-22T01:25:33.820Z,0.00
2022-10-22T01:26:33.829Z,0.00
2022-10-22T01:27:33.825Z,0.00
2022-10-22T01:28:33.787Z,0.00
2022-10-22T01:29:33.789Z,0.00
2022-10-22T01:30:33.851Z,0.00
2022-10-22T01:31:33.749Z,0.00
2022-10-22T01:32:33.716Z,0.00
2022-10-22T01:33:33.704Z,0.00
2022-10-22T01:34:33.705Z,0.00
2022-10-22T01:36:33.689Z,0.00
2022-10-22T01:37:33.651Z,0.00
2022-10-22T01:38:33.652Z,0.00
2022-10-22T01:39:33.626Z,0.00
2022-10-22T01:40:33.621Z,0.00
2022-10-22T01:41:33.622Z,0.00
2022-10-22T01:42:33.698Z,0.00
2022-10-22T01:43:33.583Z,0.00
2022-10-22T01:44:33.602Z,0.00
2022-10-22T01:45:33.541Z,0.00
2022-10-22T01:46:33.546Z,0.00
2022-10-22T01:47:33.522Z,0.00
2022-10-22T01:48:33.661Z,0.00
2022-10-22T01:49:33.506Z,0.00
2022-10-22T01:50:33.482Z,0.00
2022-10-22T01:51:33.475Z,0.00
2022-10-22T01:52:33.462Z,0.00
2022-10-22T01:53:33.476Z,0.00
2022-10-22T01:54:33.468Z,0.00
2022-10-22T01:55:33.414Z,0.00
2022-10-22T01:56:33.408Z,0.00
2022-10-22T01:57:33.399Z,0.00
2022-10-22T01:58:33.366Z,0.00
2022-10-22T01:59:33.376Z,0.00
2022-10-22T02:00:33.429Z,0.00
2022-10-22T02:01:33.339Z,0.00
2022-10-22T02:02:33.331Z,0.00
2022-10-22T02:03:33.296Z,0.00
2022-10-22T02:04:33.305Z,0.00
2022-10-22T02:05:33.295Z,0.00
2022-10-22T02:06:33.377Z,0.00
2022-10-22T02:07:33.253Z,0.00
2022-10-22T02:08:33.268Z,0.00
2022-10-22T02:09:33.232Z,0.00
2022-10-22T02:10:33.210Z,0.00
2022-10-22T02:11:33.211Z,0.00
2022-10-22T02:12:33.288Z,0.00
2022-10-22T02:13:33.178Z,0.00
2022-10-22T02:14:33.161Z,0.00
2022-10-22T02:15:33.141Z,0.00
2022-10-22T02:16:33.139Z,0.00
2022-10-22T02:17:33.125Z,0.00
2022-10-22T02:18:36.347Z,0.00
2022-10-22T02:19:34.103Z,0.00
2022-10-22T02:20:33.083Z,0.00
2022-10-22T02:21:33.064Z,0.00
2022-10-22T02:22:33.054Z,0.00
2022-10-22T02:23:33.048Z,0.00
2022-10-22T02:24:33.051Z,0.00
2022-10-22T02:25:33.012Z,0.00
2022-10-22T02:26:33.007Z,0.00
2022-10-22T02:27:32.983Z,0.00
2022-10-22T02:28:32.977Z,0.00
2022-10-22T02:29:32.977Z,0.00
2022-10-22T02:30:33.047Z,0.00
2022-10-22T02:31:32.942Z,0.00
2022-10-22T02:32:32.905Z,0.00
2022-10-22T02:33:32.896Z,0.00
2022-10-22T02:34:32.894Z,0.00
2022-10-22T02:35:32.871Z,0.00
2022-10-22T02:36:32.992Z,0.00
2022-10-22T02:37:32.860Z,0.00
2022-10-22T02:38:32.827Z,0.00
2022-10-22T02:39:32.819Z,0.00
2022-10-22T02:40:32.830Z,0.00
2022-10-22T02:41:32.809Z,0.00
2022-10-22T02:42:32.811Z,0.00
2022-10-22T02:43:32.779Z,0.00
2022-10-22T02:44:32.746Z,0.00
2022-10-22T02:45:32.739Z,0.00
2022-10-22T02:46:32.745Z,0.00
2022-10-22T02:47:32.709Z,0.00
2022-10-22T02:48:32.820Z,0.00
2022-10-22T02:49:32.709Z,0.00
2022-10-22T02:50:32.661Z,0.00
2022-10-22T02:51:32.674Z,0.00
2022-10-22T02:52:32.635Z,0.00
2022-10-22T02:53:32.642Z,0.00
2022-10-22T02:54:32.656Z,0.00
2022-10-22T02:55:32.607Z,0.00
2022-10-22T02:56:32.594Z,0.00
2022-10-22T02:57:32.564Z,0.00
2022-10-22T02:58:32.580Z,0.00
2022-10-22T02:59:32.544Z,0.00
2022-10-22T03:00:32.701Z,0.00
2022-10-22T03:01:32.530Z,0.00
2022-10-22T03:02:32.505Z,0.00
2022-10-22T03:03:32.506Z,0.00
2022-10-22T03:04:32.475Z,0.00
2022-10-22T03:05:32.456Z,0.00
2022-10-22T03:06:32.504Z,0.00
2022-10-22T03:07:32.435Z,0.00
2022-10-22T03:08:32.529Z,0.00
2022-10-22T03:09:32.430Z,0.00
2022-10-22T03:10:32.397Z,0.00
2022-10-22T03:11:32.378Z,0.00
2022-10-22T03:12:32.502Z,0.00
2022-10-22T03:13:32.376Z,0.00
2022-10-22T03:14:32.348Z,0.00
2022-10-22T03:15:32.360Z,0.00
2022-10-22T03:16:32.324Z,0.00
2022-10-22T03:17:32.299Z,0.00
2022-10-22T03:18:32.416Z,0.00
2022-10-22T03:19:32.277Z,0.00
2022-10-22T03:20:32.274Z,0.00
2022-10-22T03:21:32.263Z,0.00
2022-10-22T03:22:32.242Z,0.00
2022-10-22T03:23:32.234Z,0.00
2022-10-22T03:24:32.331Z,0.00
2022-10-22T03:25:32.191Z,0.00
2022-10-22T03:26:32.206Z,0.00
2022-10-22T03:27:32.182Z,0.00
2022-10-22T03:28:32.153Z,0.00
2022-10-22T03:29:32.143Z,0.00
2022-10-22T03:30:32.255Z,0.00
2022-10-22T03:31:32.114Z,0.00
2022-10-22T03:32:32.130Z,0.00
2022-10-22T03:33:32.097Z,0.00
2022-10-22T03:34:32.074Z,0.00
2022-10-22T03:35:32.087Z,0.00
2022-10-22T03:36:32.174Z,0.00
2022-10-22T03:37:32.035Z,0.00
2022-10-22T03:38:32.050Z,0.00
2022-10-22T03:39:32.079Z,0.00
2022-10-22T03:40:32.010Z,0.00
2022-10-22T03:41:31.990Z,0.00
2022-10-22T03:42:31.996Z,0.00
2022-10-22T03:43:31.949Z,0.00
2022-10-22T03:44:31.964Z,0.00
2022-10-22T03:45:31.997Z,0.00
2022-10-22T03:46:31.918Z,0.00
2022-10-22T03:47:31.911Z,0.00
2022-10-22T03:48:31.930Z,0.00
2022-10-22T03:49:31.871Z,0.00
2022-10-22T03:50:31.875Z,0.00
2022-10-22T03:51:31.852Z,0.00
2022-10-22T03:52:31.844Z,0.00
2022-10-22T03:53:31.832Z,0.00
2022-10-22T03:54:31.962Z,0.00
2022-10-22T03:55:31.806Z,0.00
2022-10-22T03:56:31.782Z,0.00
2022-10-22T03:57:31.760Z,0.00
2022-10-22T03:58:31.777Z,0.00
2022-10-22T04:00:11.126Z,0.00
2022-10-22T04:00:31.746Z,0.00
2022-10-22T04:01:31.731Z,0.00
2022-10-22T04:02:31.716Z,0.00
2022-10-22T04:03:31.673Z,0.00
2022-10-22T04:04:31.673Z,0.00
2022-10-22T04:05:31.701Z,0.00
2022-10-22T04:06:31.645Z,0.00
2022-10-22T04:07:31.689Z,0.00
2022-10-22T04:08:31.718Z,0.00
2022-10-22T04:09:31.599Z,0.00
2022-10-22T04:10:31.610Z,0.00
2022-10-22T04:11:31.685Z,0.00
2022-10-22T04:12:31.662Z,0.00
2022-10-22T04:13:31.562Z,0.00
2022-10-22T04:14:31.558Z,0.00
2022-10-22T04:15:31.516Z,0.00
2022-10-22T04:16:31.508Z,0.00
2022-10-22T04:17:31.542Z,0.00
2022-10-22T04:18:31.479Z,0.00
2022-10-22T04:19:31.471Z,0.00
2022-10-22T04:20:31.465Z,0.00
2022-10-22T04:21:31.440Z,0.00
2022-10-22T04:22:31.442Z,0.00
2022-10-22T04:23:31.530Z,0.00
2022-10-22T04:24:31.407Z,0.00
2022-10-22T04:25:31.394Z,0.00
2022-10-22T04:26:31.380Z,0.00
2022-10-22T04:27:31.371Z,0.00
2022-10-22T04:28:31.354Z,0.00
2022-10-22T04:29:31.351Z,0.00
2022-10-22T04:30:31.320Z,0.00
2022-10-22T04:31:31.315Z,0.00
2022-10-22T04:32:31.304Z,4.00
2022-10-22T04:33:31.282Z,4.00
2022-10-22T04:34:31.276Z,0.00
2022-10-22T04:35:31.352Z,0.00
2022-10-22T04:36:31.241Z,0.00
2022-10-22T04:37:31.232Z,0.00
2022-10-22T04:38:31.204Z,0.00
2022-10-22T04:39:31.269Z,0.00
2022-10-22T04:40:31.199Z,0.00
2022-10-22T04:41:31.293Z,0.00
2022-10-22T04:42:31.167Z,0.00
2022-10-22T04:43:31.144Z,0.00
2022-10-22T04:44:31.126Z,0.00
2022-10-22T04:45:31.119Z,0.00
2022-10-22T04:46:31.110Z,0.00
2022-10-22T04:47:31.186Z,0.00
2022-10-22T04:48:31.067Z,0.00
2022-10-22T04:49:31.066Z,0.00
2022-10-22T04:50:31.039Z,0.00
2022-10-22T04:51:31.032Z,0.00
2022-10-22T04:52:31.030Z,0.00
2022-10-22T04:53:31.127Z,0.00
2022-10-22T04:54:33.160Z,0.00
2022-10-22T04:56:30.958Z,0.00
2022-10-22T04:57:30.952Z,0.00
2022-10-22T04:58:30.930Z,0.00
2022-10-22T04:59:30.969Z,0.00
2022-10-22T05:00:30.914Z,0.00
2022-10-22T05:01:30.940Z,0.00
2022-10-22T05:02:30.886Z,0.00
2022-10-22T05:03:30.871Z,0.00
2022-10-22T05:04:30.841Z,0.00
2022-10-22T05:05:30.865Z,0.00
2022-10-22T05:06:30.827Z,0.00
2022-10-22T05:07:30.816Z,0.00
2022-10-22T05:08:30.865Z,0.00
2022-10-22T05:09:30.839Z,0.00
2022-10-22T05:10:30.785Z,0.00
2022-10-22T05:11:30.854Z,0.00
2022-10-22T05:12:30.751Z,0.00
2022-10-22T05:13:30.734Z,0.00
2022-10-22T05:14:30.705Z,0.00
2022-10-22T05:15:30.700Z,0.00
2022-10-22T05:16:30.705Z,0.00
2022-10-22T05:17:30.684Z,0.00
2022-10-22T05:18:30.648Z,0.00
2022-10-22T05:19:30.651Z,0.00
2022-10-22T05:20:30.640Z,0.00
2022-10-22T05:21:30.606Z,0.00
2022-10-22T05:22:30.613Z,0.00
2022-10-22T05:23:30.607Z,0.00
2022-10-22T05:24:30.571Z,0.00
2022-10-22T05:25:30.572Z,0.00
2022-10-22T05:26:30.538Z,0.00
2022-10-22T05:27:30.533Z,0.00
2022-10-22T05:28:30.531Z,0.00
2022-10-22T05:29:30.528Z,0.00
2022-10-22T05:30:30.503Z,1.00
2022-10-22T05:31:30.467Z,1.00
2022-10-22T05:32:30.461Z,1.00
2022-10-22T05:33:30.464Z,1.00
2022-10-22T05:34:30.443Z,0.00
2022-10-22T05:35:30.531Z,2.00
2022-10-22T05:36:30.401Z,2.00
2022-10-22T05:37:30.405Z,4.00
2022-10-22T05:38:30.379Z,4.00
2022-10-22T05:39:30.374Z,4.00
2022-10-22T05:41:41.765Z,0.00
2022-10-22T05:42:41.599Z,9.00
2022-10-22T05:43:41.357Z,15.00
2022-10-22T05:44:41.363Z,13.00
2022-10-22T05:45:41.335Z,20.00
2022-10-22T05:46:41.337Z,25.00
2022-10-22T05:47:41.360Z,31.00
2022-10-22T05:48:41.297Z,34.00
2022-10-22T05:49:41.291Z,42.00
2022-10-22T05:50:41.400Z,47.00
2022-10-22T05:51:41.238Z,58.00
2022-10-22T05:52:41.605Z,59.00
2022-10-22T05:53:41.222Z,74.00
2022-10-22T05:54:41.202Z,84.00
2022-10-22T05:55:41.149Z,96.00
2022-10-22T05:56:41.162Z,107.00
2022-10-22T05:57:41.119Z,119.00
2022-10-22T05:58:41.118Z,132.00
2022-10-22T05:59:41.223Z,143.00
2022-10-22T06:00:41.088Z,157.00
2022-10-22T06:01:41.091Z,168.00
2022-10-22T06:02:41.274Z,179.00
2022-10-22T06:03:41.050Z,196.00
2022-10-22T06:04:41.045Z,213.00
2022-10-22T06:05:41.133Z,229.00
2022-10-22T06:06:41.014Z,243.00
2022-10-22T06:07:41.005Z,258.00
2022-10-22T06:08:41.050Z,273.00
2022-10-22T06:09:40.967Z,288.00
2022-10-22T06:10:40.966Z,307.00
2022-10-22T06:11:41.058Z,323.00
2022-10-22T06:12:41.323Z,340.00
2022-10-22T06:13:40.930Z,360.00
2022-10-22T06:14:40.938Z,379.00
2022-10-22T06:15:40.875Z,398.00
2022-10-22T06:16:40.888Z,420.00
2022-10-22T06:17:40.995Z,447.00
2022-10-22T06:18:40.868Z,474.00
2022-10-22T06:19:40.845Z,504.00
2022-10-22T06:20:40.816Z,539.00
2022-10-22T06:21:40.815Z,578.00
2022-10-22T06:22:41.045Z,621.00
2022-10-22T06:23:40.880Z,667.00
2022-10-22T06:24:42.955Z,714.00
2022-10-22T06:25:40.751Z,762.00
2022-10-22T06:26:40.751Z,810.00
2022-10-22T06:27:40.717Z,859.00
2022-10-22T06:28:40.722Z,904.00
2022-10-22T06:29:40.800Z,946.00
2022-10-22T06:30:43.010Z,985.00
2022-10-22T06:31:41.695Z,1023.00
2022-10-22T06:32:40.910Z,1058.00
2022-10-22T06:33:40.657Z,1091.00
2022-10-22T06:34:40.642Z,1120.00
2022-10-22T06:35:40.722Z,1150.00
2022-10-22T06:37:40.829Z,1201.00
2022-10-22T06:38:40.572Z,1229.00
2022-10-22T06:39:40.565Z,1251.00
2022-10-22T06:40:40.547Z,1278.00
2022-10-22T06:41:40.657Z,1301.00
2022-10-22T06:42:40.761Z,1325.00
2022-10-22T06:43:40.500Z,1348.00
2022-10-22T06:44:40.509Z,1373.00
2022-10-22T06:45:40.472Z,1406.00
2022-10-22T06:46:43.444Z,1449.00
2022-10-22T06:47:40.686Z,1493.00
2022-10-22T06:48:40.441Z,1546.00
2022-10-22T06:49:40.437Z,1599.00
2022-10-22T06:50:40.429Z,1649.00
2022-10-22T06:51:40.396Z,1683.00
2022-10-22T06:52:40.407Z,1722.00
2022-10-22T06:53:40.482Z,1774.00
2022-10-22T06:54:40.368Z,1830.00
2022-10-22T06:55:40.358Z,1892.00
2022-10-22T06:56:40.350Z,1950.00
2022-10-22T06:57:40.571Z,2007.00
2022-10-22T06:58:40.304Z,2054.00
2022-10-22T06:59:40.341Z,2106.00
2022-10-22T07:00:40.293Z,2191.00
2022-10-22T07:01:40.337Z,2247.00
2022-10-22T07:02:40.465Z,2297.00
2022-10-22T07:03:40.248Z,2332.00
2022-10-22T07:04:40.252Z,2363.00
2022-10-22T07:05:40.309Z,2398.00
2022-10-22T07:06:40.189Z,2437.00
2022-10-22T07:07:40.220Z,2479.00
2022-10-22T07:08:40.258Z,2530.00
2022-10-22T07:09:40.168Z,2580.00
2022-10-22T07:10:40.233Z,2611.00
2022-10-22T07:11:40.243Z,2660.00
2022-10-22T07:12:40.412Z,2688.00
2022-10-22T07:13:40.114Z,2667.00
2022-10-22T07:14:40.116Z,2764.00
2022-10-22T07:15:40.069Z,2887.00
2022-10-22T07:16:40.066Z,3047.00
2022-10-22T07:18:40.041Z,3259.00
2022-10-22T07:19:40.053Z,3327.00
2022-10-22T07:20:40.004Z,3407.00
2022-10-22T07:21:39.998Z,3469.00
2022-10-22T07:22:40.280Z,3559.00
2022-10-22T07:23:40.099Z,3652.00
2022-10-22T07:24:39.968Z,3765.00
2022-10-22T07:25:39.945Z,3872.00
2022-10-22T07:26:39.926Z,3942.00
2022-10-22T07:27:40.162Z,3997.00
2022-10-22T07:28:39.957Z,4018.00
2022-10-22T07:29:39.916Z,4037.00
2022-10-22T07:30:39.873Z,4045.00
2022-10-22T07:31:39.881Z,4089.00
2022-10-22T07:32:39.840Z,4104.00
2022-10-22T07:33:39.850Z,4128.00
2022-10-22T07:34:41.831Z,4140.00
2022-10-22T07:35:39.926Z,4158.00
2022-10-22T07:36:39.803Z,4181.00
2022-10-22T07:37:40.044Z,4183.00
2022-10-22T07:38:39.761Z,4215.00
2022-10-22T07:39:39.761Z,4244.00
2022-10-22T07:40:39.753Z,4287.00
2022-10-22T07:41:39.845Z,4307.00
2022-10-22T07:42:39.714Z,4313.00
2022-10-22T07:43:39.691Z,4329.00
2022-10-22T07:44:39.705Z,4334.00
2022-10-22T07:45:39.672Z,4342.00
2022-10-22T07:46:39.681Z,4356.00
2022-10-22T07:47:39.977Z,4372.00
2022-10-22T07:48:39.627Z,4383.00
2022-10-22T07:49:39.647Z,4391.00
2022-10-22T07:50:39.663Z,4408.00
2022-10-22T07:51:39.588Z,4398.00
2022-10-22T07:52:40.018Z,4405.00
2022-10-22T07:53:39.605Z,4397.00
2022-10-22T07:54:39.544Z,4399.00
2022-10-22T07:55:39.558Z,4415.00
2022-10-22T07:56:39.507Z,4444.00
2022-10-22T07:57:39.513Z,4438.00
2022-10-22T07:58:39.510Z,4444.00
2022-10-22T07:59:39.497Z,4466.00
2022-10-22T08:00:39.469Z,4483.00
2022-10-22T08:01:39.529Z,4518.00
2022-10-22T08:02:39.906Z,4538.00
2022-10-22T08:03:39.420Z,4577.00
2022-10-22T08:04:39.430Z,4605.00
2022-10-22T08:05:39.508Z,4637.00
2022-10-22T08:06:39.390Z,4678.00
2022-10-22T08:07:39.385Z,4703.00
2022-10-22T08:08:39.387Z,4748.00
2022-10-22T08:09:39.351Z,4806.00
2022-10-22T08:10:39.352Z,4845.00
2022-10-22T08:11:39.417Z,4874.00
2022-10-22T08:12:39.712Z,4918.00
2022-10-22T08:13:44.099Z,4958.00
2022-10-22T08:14:40.277Z,4992.00
2022-10-22T08:15:39.326Z,5024.00
2022-10-22T08:16:39.255Z,5078.00
2022-10-22T08:17:39.796Z,5091.00
2022-10-22T08:18:39.211Z,5090.00
2022-10-22T08:19:39.225Z,5114.00
2022-10-22T08:20:39.191Z,5137.00
2022-10-22T08:21:39.510Z,5128.00
2022-10-22T08:22:39.166Z,5131.00
2022-10-22T08:23:39.283Z,5144.00
2022-10-22T08:24:39.146Z,5043.00
2022-10-22T08:25:39.114Z,5191.00
2022-10-22T08:26:39.124Z,5223.00
2022-10-22T08:27:39.483Z,5195.00
2022-10-22T08:28:39.084Z,5164.00
2022-10-22T08:29:39.200Z,5292.00
2022-10-22T08:30:39.069Z,5146.00
2022-10-22T08:31:39.070Z,5088.00
2022-10-22T08:32:39.043Z,5027.00
2022-10-22T08:33:39.074Z,4886.00
2022-10-22T08:34:39.035Z,4908.00
2022-10-22T08:35:39.018Z,4969.00
2022-10-22T08:36:39.011Z,5243.00
2022-10-22T08:37:39.333Z,5277.00
2022-10-22T08:38:38.932Z,5196.00
2022-10-22T08:39:38.952Z,5155.00
2022-10-22T08:40:39.083Z,5147.00
2022-10-22T08:41:38.950Z,5045.00
2022-10-22T08:42:39.184Z,4983.00
2022-10-22T08:43:38.876Z,4982.00
2022-10-22T08:44:38.890Z,4940.00
2022-10-22T08:45:38.845Z,4893.00
2022-10-22T08:46:38.834Z,4807.00
2022-10-22T08:47:38.852Z,4687.00
2022-10-22T08:48:38.809Z,4683.00
2022-10-22T08:49:41.283Z,4700.00
2022-10-22T08:50:38.786Z,4709.00
2022-10-22T08:51:38.766Z,4703.00
2022-10-22T08:52:39.221Z,4594.00
2022-10-22T08:53:38.857Z,4543.00
2022-10-22T08:54:38.714Z,4481.00
2022-10-22T08:55:38.744Z,4574.00
2022-10-22T08:56:38.686Z,4682.00
2022-10-22T08:57:38.698Z,4666.00
2022-10-22T08:58:38.764Z,4539.00
2022-10-22T08:59:38.680Z,4304.00
2022-10-22T09:00:38.658Z,3462.00
2022-10-22T09:01:38.627Z,3831.00
2022-10-22T09:02:38.976Z,4125.00
2022-10-22T09:03:38.610Z,4148.00
2022-10-22T09:04:38.602Z,4032.00
2022-10-22T09:05:38.754Z,4319.00
2022-10-22T09:06:38.558Z,3776.00
2022-10-22T09:07:38.802Z,3967.00
2022-10-22T09:08:38.590Z,4008.00
2022-10-22T09:09:38.541Z,4256.00
2022-10-22T09:10:38.522Z,4834.00
2022-10-22T09:11:38.530Z,5171.00
2022-10-22T09:12:38.491Z,5220.00
2022-10-22T09:13:38.461Z,5459.00
2022-10-22T09:14:38.441Z,5523.00
2022-10-22T09:15:38.464Z,5669.00
2022-10-22T09:16:38.420Z,5759.00
2022-10-22T09:17:38.515Z,5801.00
2022-10-22T09:18:38.406Z,5382.00
2022-10-22T09:19:38.400Z,5291.00
2022-10-22T09:20:38.368Z,4766.00
2022-10-22T09:21:38.376Z,4456.00
2022-10-22T09:22:38.363Z,4807.00
2022-10-22T09:23:38.369Z,4868.00
2022-10-22T09:24:38.329Z,5115.00
2022-10-22T09:25:38.329Z,5678.00
2022-10-22T09:26:38.276Z,5937.00
2022-10-22T09:27:38.623Z,6159.00
2022-10-22T09:28:38.266Z,6210.00
2022-10-22T09:29:38.380Z,6310.00
2022-10-22T09:30:38.254Z,6308.00
2022-10-22T09:31:38.246Z,6311.00
2022-10-22T09:32:38.370Z,6337.00
2022-10-22T09:33:38.200Z,6375.00
2022-10-22T09:34:38.177Z,6391.00
2022-10-22T09:35:38.302Z,6497.00
2022-10-22T09:36:38.164Z,6517.00
2022-10-22T09:37:38.138Z,6525.00
2022-10-22T09:38:38.129Z,6580.00
2022-10-22T09:39:38.124Z,6616.00
2022-10-22T09:40:38.091Z,6643.00
2022-10-22T09:41:38.215Z,6071.00
2022-10-22T09:42:38.107Z,7035.00
2022-10-22T09:43:38.055Z,7358.00
2022-10-22T09:44:38.049Z,6841.00
2022-10-22T09:45:38.039Z,7086.00
2022-10-22T09:46:38.012Z,7087.00
2022-10-22T09:47:43.639Z,7032.00
2022-10-22T09:48:38.984Z,7162.00
2022-10-22T09:49:37.992Z,6969.00
2022-10-22T09:50:37.979Z,6971.00
2022-10-22T09:51:37.944Z,5235.00
2022-10-22T09:52:37.949Z,6574.00
2022-10-22T09:53:37.944Z,6644.00
2022-10-22T09:54:37.896Z,7113.00
2022-10-22T09:55:37.933Z,5807.00
2022-10-22T09:56:37.919Z,7102.00
2022-10-22T09:57:39.888Z,7366.00
2022-10-22T09:58:37.872Z,7296.00
2022-10-22T09:59:37.969Z,6856.00
2022-10-22T10:00:37.929Z,7002.00
2022-10-22T10:01:37.800Z,7279.00
2022-10-22T10:02:38.772Z,7585.00
2022-10-22T10:03:37.822Z,8067.00
2022-10-22T10:04:37.764Z,8453.00
2022-10-22T10:05:37.830Z,8227.00
2022-10-22T10:06:37.757Z,8393.00
2022-10-22T10:07:37.728Z,8543.00
2022-10-22T10:08:37.754Z,8699.00
2022-10-22T10:09:37.731Z,7683.00
2022-10-22T10:10:37.705Z,7750.00
2022-10-22T10:11:37.696Z,7021.00
2022-10-22T10:12:37.689Z,6739.00
2022-10-22T10:13:37.656Z,7022.00
2022-10-22T10:14:37.643Z,7717.00
2022-10-22T10:15:37.673Z,7654.00
2022-10-22T10:16:37.605Z,7523.00
2022-10-22T10:17:37.738Z,5928.00
2022-10-22T10:18:37.599Z,7473.00
2022-10-22T10:19:37.575Z,7503.00
2022-10-22T10:20:37.560Z,7684.00
2022-10-22T10:21:37.536Z,7847.00
2022-10-22T10:22:37.526Z,8085.00
2022-10-22T10:23:37.630Z,8109.00
2022-10-22T10:24:37.510Z,8196.00
2022-10-22T10:25:37.508Z,8223.00
2022-10-22T10:26:37.472Z,8698.00
2022-10-22T10:27:37.480Z,8915.00
2022-10-22T10:28:37.438Z,9940.00
2022-10-22T10:30:37.436Z,10189.00
2022-10-22T10:31:37.423Z,9655.00
2022-10-22T10:32:37.404Z,11921.00
2022-10-22T10:33:37.371Z,13585.00
2022-10-22T10:34:37.362Z,14527.00
2022-10-22T10:35:37.487Z,16402.00
2022-10-22T10:36:37.332Z,16939.00
2022-10-22T10:37:37.335Z,15811.00
2022-10-22T10:38:37.317Z,13530.00
2022-10-22T10:39:37.299Z,9295.00
2022-10-22T10:40:37.273Z,10234.00
2022-10-22T10:41:37.419Z,12174.00
2022-10-22T10:42:37.268Z,13875.00
2022-10-22T10:43:37.245Z,9488.00
2022-10-22T10:44:37.242Z,9482.00
2022-10-22T10:45:37.216Z,13231.00
2022-10-22T10:46:37.370Z,15997.00
2022-10-22T10:47:37.239Z,26227.00
2022-10-22T10:48:37.176Z,25697.00
2022-10-22T10:49:37.179Z,19457.00
2022-10-22T10:50:37.161Z,15257.00
2022-10-22T10:51:37.145Z,11606.00
2022-10-22T10:52:37.128Z,10745.00
2022-10-22T10:53:37.221Z,11981.00
2022-10-22T10:55:37.105Z,12148.00
2022-10-22T10:56:39.150Z,13115.00
2022-10-22T10:57:37.069Z,13680.00
2022-10-22T10:58:37.052Z,12975.00
2022-10-22T10:59:37.052Z,11978.00
2022-10-22T11:00:37.022Z,10862.00
2022-10-22T11:01:37.094Z,11499.00
2022-10-22T11:02:36.993Z,11086.00
2022-10-22T11:03:36.996Z,10377.00
2022-10-22T11:04:36.954Z,9475.00
2022-10-22T11:05:37.067Z,9245.00
2022-10-22T11:06:36.936Z,9344.00
2022-10-22T11:07:36.914Z,9526.00
2022-10-22T11:08:36.966Z,10292.00
2022-10-22T11:09:36.905Z,11458.00
2022-10-22T11:10:36.892Z,11402.00
2022-10-22T11:11:37.359Z,11124.00
2022-10-22T11:12:36.860Z,10031.00
2022-10-22T11:13:36.838Z,8994.00
2022-10-22T11:14:36.864Z,9146.00
2022-10-22T11:15:36.830Z,10447.00
2022-10-22T11:16:36.801Z,10265.00
2022-10-22T11:17:36.880Z,10476.00
2022-10-22T11:18:36.818Z,9730.00
2022-10-22T11:19:50.965Z,8994.00
2022-10-22T11:20:37.744Z,6689.00
2022-10-22T11:21:36.740Z,5822.00
2022-10-22T11:22:36.703Z,5218.00
2022-10-22T11:23:36.745Z,4223.00
2022-10-22T11:24:36.681Z,3893.00
2022-10-22T11:25:36.703Z,4260.00
2022-10-22T11:26:36.666Z,4495.00
2022-10-22T11:27:36.643Z,5254.00
2022-10-22T11:28:36.623Z,5840.00
2022-10-22T11:29:36.755Z,5761.00
2022-10-22T11:30:36.610Z,6938.00
2022-10-22T11:31:36.585Z,8349.00
2022-10-22T11:32:36.584Z,9681.00
2022-10-22T11:33:36.572Z,10603.00
2022-10-22T11:34:36.545Z,10918.00
2022-10-22T11:35:36.679Z,10746.00
2022-10-22T11:36:36.539Z,10129.00
2022-10-22T11:37:36.524Z,10450.00
2022-10-22T11:38:36.509Z,11245.00
2022-10-22T11:39:36.485Z,11459.00
2022-10-22T11:40:36.482Z,11220.00
2022-10-22T11:41:36.572Z,10766.00
2022-10-22T11:42:36.439Z,10733.00
2022-10-22T11:43:36.451Z,10325.00
2022-10-22T11:44:36.422Z,9868.00
2022-10-22T11:45:36.430Z,9218.00
2022-10-22T11:46:36.389Z,9040.00
2022-10-22T11:47:36.523Z,8500.00
2022-10-22T11:48:36.381Z,7832.00
2022-10-22T11:49:36.364Z,7235.00
2022-10-22T11:50:36.340Z,6896.00
2022-10-22T11:51:36.322Z,6770.00
2022-10-22T11:52:36.324Z,6651.00
2022-10-22T11:53:36.328Z,6615.00
2022-10-22T11:54:36.282Z,6716.00
2022-10-22T11:55:36.288Z,6668.00
2022-10-22T11:56:36.244Z,6632.00
2022-10-22T11:57:36.256Z,6292.00
2022-10-22T11:58:36.236Z,5923.00
2022-10-22T11:59:36.325Z,5661.00
2022-10-22T12:00:36.230Z,5562.00
2022-10-22T12:02:36.177Z,5360.00
2022-10-22T12:03:36.174Z,5222.00
2022-10-22T12:04:36.211Z,5359.00
2022-10-22T12:05:36.270Z,5137.00
2022-10-22T12:06:36.127Z,5311.00
2022-10-22T12:07:36.112Z,5945.00
2022-10-22T12:08:36.210Z,6537.00
2022-10-22T12:09:36.080Z,6725.00
2022-10-22T12:10:36.061Z,6771.00
2022-10-22T12:11:36.095Z,7187.00
2022-10-22T12:12:36.030Z,7455.00
2022-10-22T12:13:36.048Z,7042.00
2022-10-22T12:14:36.015Z,6872.00
2022-10-22T12:15:35.999Z,7161.00
2022-10-22T12:16:56.322Z,7070.00
2022-10-22T12:17:37.097Z,7074.00
2022-10-22T12:18:35.960Z,7302.00
2022-10-22T12:19:35.935Z,7323.00
2022-10-22T12:20:35.937Z,6744.00
2022-10-22T12:21:35.913Z,6285.00
2022-10-22T12:22:35.893Z,6140.00
2022-10-22T12:23:35.937Z,6583.00
2022-10-22T12:24:35.855Z,6542.00
2022-10-22T12:25:36.098Z,6548.00
2022-10-22T12:26:35.861Z,7040.00
2022-10-22T12:27:35.826Z,7576.00
2022-10-22T12:28:35.829Z,7578.00
2022-10-22T12:29:35.927Z,7506.00
2022-10-22T12:30:35.776Z,7698.00
2022-10-22T12:31:35.800Z,8122.00
2022-10-22T12:32:35.779Z,8840.00
2022-10-22T12:33:35.756Z,8968.00
2022-10-22T12:34:35.729Z,8435.00
2022-10-22T12:35:35.775Z,8012.00
2022-10-22T12:36:35.708Z,7712.00
2022-10-22T12:37:35.702Z,7055.00
2022-10-22T12:38:35.699Z,6550.00
2022-10-22T12:39:35.693Z,5987.00
2022-10-22T12:40:35.668Z,5865.00
2022-10-22T12:41:35.762Z,5931.00
2022-10-22T12:42:35.623Z,6078.00
2022-10-22T12:43:35.627Z,6598.00
2022-10-22T12:44:35.599Z,6689.00
2022-10-22T12:45:35.612Z,6452.00